createdAt,value
2024-04-19T00:01:56.446Z,21.79
2024-04-19T00:03:58.590Z,21.78
2024-04-19T00:06:00.772Z,21.75
2024-04-19T00:08:04.729Z,21.76
2024-04-19T00:10:06.653Z,21.75
2024-04-19T00:12:10.548Z,21.74
2024-04-19T00:14:12.535Z,21.74
2024-04-19T00:16:14.379Z,21.73
2024-04-19T00:18:16.486Z,21.73
2024-04-19T00:20:18.982Z,21.74
2024-04-19T00:22:20.612Z,21.74
2024-04-19T00:24:22.744Z,21.74
2024-04-19T00:26:25.667Z,21.75
2024-04-19T00:28:28.463Z,21.76
2024-04-19T00:30:30.150Z,21.76
2024-04-19T00:32:31.813Z,21.76
2024-04-19T00:34:33.655Z,21.75
2024-04-19T00:36:35.964Z,21.70
2024-04-19T00:38:37.670Z,21.68
2024-04-19T00:40:39.391Z,21.63
2024-04-19T00:42:57.496Z,21.60
2024-04-19T00:44:59.082Z,21.59
2024-04-19T00:47:01.513Z,21.59
2024-04-19T00:49:03.183Z,21.57
2024-04-19T00:51:05.627Z,21.57
2024-04-19T00:53:07.631Z,21.56
2024-04-19T00:55:09.442Z,21.55
2024-04-19T00:57:11.925Z,21.57
2024-04-19T00:59:13.572Z,21.57
2024-04-19T01:01:15.324Z,21.57
2024-04-19T01:03:17.234Z,21.55
2024-04-19T01:05:18.932Z,21.55
2024-04-19T01:07:21.984Z,21.57
2024-04-19T01:09:23.725Z,21.56
2024-04-19T01:11:25.705Z,21.55
2024-04-19T01:13:27.600Z,21.55
2024-04-19T01:15:29.290Z,21.56
2024-04-19T01:17:30.978Z,21.57
2024-04-19T01:19:32.644Z,21.58
2024-04-19T01:21:34.567Z,21.58
2024-04-19T01:23:36.553Z,21.59
2024-04-19T01:25:38.412Z,21.60
2024-04-19T01:27:40.773Z,21.60
2024-04-19T01:29:42.439Z,21.60
2024-04-19T01:31:44.022Z,21.60
2024-04-19T01:33:45.762Z,21.59
2024-04-19T01:35:47.717Z,21.62
2024-04-19T01:37:50.708Z,21.62
2024-04-19T01:39:52.339Z,21.61
2024-04-19T01:41:56.828Z,21.64
2024-04-19T01:43:59.801Z,21.65
2024-04-19T01:46:01.731Z,21.67
2024-04-19T01:48:05.304Z,21.68
2024-04-19T01:50:07.436Z,21.69
2024-04-19T01:52:09.067Z,21.69
2024-04-19T01:54:10.810Z,21.69
2024-04-19T01:56:12.842Z,21.69
2024-04-19T01:58:14.504Z,21.68
2024-04-19T02:00:16.281Z,21.69
2024-04-19T02:02:18.091Z,21.69
2024-04-19T02:04:20.115Z,21.67
2024-04-19T02:06:21.798Z,21.68
2024-04-19T02:08:23.406Z,21.68
2024-04-19T02:10:24.979Z,21.70
2024-04-19T02:13:04.176Z,21.73
2024-04-19T02:15:06.286Z,21.75
2024-04-19T02:17:08.515Z,21.76
2024-04-19T02:19:10.347Z,21.74
2024-04-19T02:21:12.970Z,21.74
2024-04-19T02:23:17.258Z,21.74
2024-04-19T02:25:19.157Z,21.74
2024-04-19T02:27:41.432Z,21.72
2024-04-19T02:30:01.834Z,21.72
2024-04-19T02:32:03.961Z,21.69
2024-04-19T02:34:05.667Z,21.70
2024-04-19T02:36:08.157Z,21.74
2024-04-19T02:38:09.818Z,21.74
2024-04-19T02:40:11.427Z,21.75
2024-04-19T02:42:38.590Z,21.76
2024-04-19T02:44:40.885Z,21.75
2024-04-19T02:46:42.914Z,21.74
2024-04-19T02:48:44.911Z,21.71
2024-04-19T02:50:48.455Z,21.73
2024-04-19T02:52:50.026Z,21.73
2024-04-19T02:54:51.652Z,21.72
2024-04-19T02:56:53.365Z,21.71
2024-04-19T02:58:55.159Z,21.73
2024-04-19T03:00:57.152Z,21.72
2024-04-19T03:02:59.105Z,21.74
2024-04-19T03:05:00.941Z,21.73
2024-04-19T03:07:02.689Z,21.74
2024-04-19T03:09:04.480Z,21.76
2024-04-19T03:11:06.220Z,21.75
2024-04-19T03:13:22.822Z,21.75
2024-04-19T03:15:24.563Z,21.74
2024-04-19T03:17:26.238Z,21.73
2024-04-19T03:19:30.814Z,21.72
2024-04-19T03:21:32.515Z,21.73
2024-04-19T03:23:34.395Z,21.69
2024-04-19T03:25:37.623Z,21.69
2024-04-19T03:27:40.188Z,21.71
2024-04-19T03:29:41.849Z,21.72
2024-04-19T03:31:43.531Z,21.74
2024-04-19T03:33:45.313Z,21.73
2024-04-19T03:35:47.218Z,21.74
2024-04-19T03:37:49.341Z,21.75
2024-04-19T03:39:50.989Z,21.73
2024-04-19T03:41:53.012Z,21.71
2024-04-19T03:44:22.399Z,21.73
2024-04-19T03:46:24.378Z,21.69
2024-04-19T03:48:26.315Z,21.70
2024-04-19T03:50:28.089Z,21.69
2024-04-19T03:52:29.704Z,21.72
2024-04-19T03:54:31.389Z,21.70
2024-04-19T03:56:33.065Z,21.73
2024-04-19T03:58:35.141Z,21.71
2024-04-19T04:00:37.546Z,21.73
2024-04-19T04:02:39.346Z,21.73
2024-04-19T04:04:41.062Z,21.70
2024-04-19T04:06:42.768Z,21.73
2024-04-19T04:08:46.429Z,21.69
2024-04-19T04:10:48.119Z,21.68
2024-04-19T04:13:16.701Z,21.69
2024-04-19T04:15:18.740Z,21.69
2024-04-19T04:17:20.446Z,21.67
2024-04-19T04:19:22.137Z,21.70
2024-04-19T04:21:24.113Z,21.70
2024-04-19T04:23:25.747Z,21.72
2024-04-19T04:25:27.393Z,21.73
2024-04-19T04:27:29.056Z,21.74
2024-04-19T04:29:30.752Z,21.75
2024-04-19T04:31:32.427Z,21.71
2024-04-19T04:33:34.446Z,21.73
2024-04-19T04:35:37.948Z,21.69
2024-04-19T04:37:40.249Z,21.67
2024-04-19T04:39:41.913Z,21.66
2024-04-19T04:41:43.751Z,21.65
2024-04-19T04:44:01.700Z,21.65
2024-04-19T04:46:03.515Z,21.66
2024-04-19T04:48:05.669Z,21.67
2024-04-19T04:50:07.345Z,21.66
2024-04-19T04:52:08.998Z,21.67
2024-04-19T04:54:10.788Z,21.68
2024-04-19T04:56:12.546Z,21.70
2024-04-19T04:58:14.779Z,21.72
2024-04-19T05:00:16.537Z,21.69
2024-04-19T05:02:18.253Z,21.67
2024-04-19T05:04:20.212Z,21.65
2024-04-19T05:06:22.274Z,21.65
2024-04-19T05:08:23.951Z,21.66
2024-04-19T05:10:25.580Z,21.67
2024-04-19T05:12:53.787Z,21.66
2024-04-19T05:14:55.450Z,21.66
2024-04-19T05:16:57.638Z,21.65
2024-04-19T05:18:59.326Z,21.65
2024-04-19T05:21:01.906Z,21.68
2024-04-19T05:23:03.669Z,21.69
2024-04-19T05:25:08.792Z,21.66
2024-04-19T05:27:10.421Z,21.64
2024-04-19T05:29:13.340Z,21.65
2024-04-19T05:31:15.160Z,21.64
2024-04-19T05:33:16.796Z,21.63
2024-04-19T05:35:18.407Z,21.64
2024-04-19T05:37:20.954Z,21.63
2024-04-19T05:39:22.636Z,21.63
2024-04-19T05:41:24.863Z,21.66
2024-04-19T05:43:54.190Z,21.65
2024-04-19T05:45:55.878Z,21.65
2024-04-19T05:47:57.844Z,21.66
2024-04-19T05:49:59.526Z,21.66
2024-04-19T05:52:01.925Z,21.67
2024-04-19T05:54:03.575Z,21.67
2024-04-19T05:56:05.210Z,21.65
2024-04-19T05:58:06.880Z,21.63
2024-04-19T06:00:09.071Z,21.61
2024-04-19T06:02:10.768Z,21.62
2024-04-19T06:04:13.431Z,21.63
2024-04-19T06:06:16.533Z,21.62
2024-04-19T06:08:18.550Z,21.60
2024-04-19T06:10:20.206Z,21.62
2024-04-19T06:12:36.932Z,21.62
2024-04-19T06:14:38.579Z,21.63
2024-04-19T06:16:40.178Z,21.65
2024-04-19T06:18:41.969Z,21.64
2024-04-19T06:20:43.824Z,21.64
2024-04-19T06:22:45.572Z,21.64
2024-04-19T06:24:47.707Z,21.60
2024-04-19T06:26:49.445Z,21.60
2024-04-19T06:28:51.053Z,21.62
2024-04-19T06:30:52.884Z,21.63
2024-04-19T06:32:56.347Z,21.62
2024-04-19T06:34:57.948Z,21.62
2024-04-19T06:36:59.540Z,21.62
2024-04-19T06:39:01.955Z,21.62
2024-04-19T06:41:04.276Z,21.63
2024-04-19T06:43:10.183Z,21.63
2024-04-19T06:45:12.140Z,21.63
2024-04-19T06:47:14.039Z,21.62
2024-04-19T06:49:16.143Z,21.60
2024-04-19T06:51:17.798Z,21.60
2024-04-19T06:53:19.918Z,21.58
2024-04-19T06:55:21.547Z,21.58
2024-04-19T06:57:23.165Z,21.59
2024-04-19T06:59:24.886Z,21.59
2024-04-19T07:01:27.090Z,21.62
2024-04-19T07:03:28.890Z,21.61
2024-04-19T07:05:30.606Z,21.63
2024-04-19T07:07:32.329Z,21.63
2024-04-19T07:09:34.216Z,21.63
2024-04-19T07:11:40.972Z,21.63
2024-04-19T07:13:47.616Z,21.59
2024-04-19T07:15:49.611Z,21.58
2024-04-19T07:17:51.668Z,21.55
2024-04-19T07:19:53.287Z,21.58
2024-04-19T07:21:54.890Z,21.60
2024-04-19T07:23:56.514Z,21.58
2024-04-19T07:26:01.276Z,21.58
2024-04-19T07:28:02.986Z,21.60
2024-04-19T07:30:05.404Z,21.62
2024-04-19T07:32:07.234Z,21.62
2024-04-19T07:34:08.896Z,21.63
2024-04-19T07:36:11.942Z,21.62
2024-04-19T07:38:14.478Z,21.62
2024-04-19T07:40:16.276Z,21.61
2024-04-19T07:42:20.874Z,21.60
2024-04-19T07:44:22.937Z,21.60
2024-04-19T07:46:24.514Z,21.60
2024-04-19T07:48:26.260Z,21.61
2024-04-19T07:50:28.063Z,21.59
2024-04-19T07:52:29.977Z,21.60
2024-04-19T07:54:31.682Z,21.61
2024-04-19T07:56:35.065Z,21.63
2024-04-19T07:58:38.236Z,21.62
2024-04-19T08:00:40.235Z,21.62
2024-04-19T08:02:42.487Z,21.64
2024-04-19T08:04:44.409Z,21.61
2024-04-19T08:06:46.193Z,21.62
2024-04-19T08:08:50.044Z,21.62
2024-04-19T08:10:52.014Z,21.62
2024-04-19T08:12:54.294Z,21.61
2024-04-19T08:14:56.107Z,21.62
2024-04-19T08:16:57.832Z,21.60
2024-04-19T08:18:59.558Z,21.61
2024-04-19T08:21:01.730Z,21.61
2024-04-19T08:23:03.698Z,21.62
2024-04-19T08:25:05.578Z,21.62
2024-04-19T08:27:07.227Z,21.63
2024-04-19T08:29:18.189Z,21.64
2024-04-19T08:31:27.794Z,21.62
2024-04-19T08:33:29.802Z,21.62
2024-04-19T08:35:31.421Z,21.61
2024-04-19T08:37:33.300Z,21.63
2024-04-19T08:39:34.955Z,21.63
2024-04-19T08:42:03.190Z,21.61
2024-04-19T08:44:06.243Z,21.60
2024-04-19T08:46:09.093Z,21.63
2024-04-19T08:48:11.848Z,21.63
2024-04-19T08:50:16.350Z,21.63
2024-04-19T08:52:39.677Z,21.65
2024-04-19T08:54:43.861Z,21.65
2024-04-19T08:56:46.527Z,21.64
2024-04-19T08:58:50.851Z,21.65
2024-04-19T09:00:53.251Z,21.66
2024-04-19T09:02:54.901Z,21.68
2024-04-19T09:04:59.322Z,21.67
2024-04-19T09:07:00.959Z,21.66
2024-04-19T09:09:03.615Z,21.65
2024-04-19T09:11:15.112Z,21.67
2024-04-19T09:13:16.787Z,21.68
2024-04-19T09:15:19.215Z,21.69
2024-04-19T09:17:20.909Z,21.70
2024-04-19T09:19:25.447Z,21.72
2024-04-19T09:21:27.410Z,21.69
2024-04-19T09:23:29.242Z,21.69
2024-04-19T09:25:30.845Z,21.69
2024-04-19T09:27:33.930Z,21.69
2024-04-19T09:29:36.091Z,21.68
2024-04-19T09:31:37.742Z,21.67
2024-04-19T09:33:39.629Z,21.66
2024-04-19T09:35:41.322Z,21.67
2024-04-19T09:37:45.290Z,21.68
2024-04-19T09:39:47.157Z,21.67
2024-04-19T09:41:49.039Z,21.68
2024-04-19T09:43:51.300Z,21.71
2024-04-19T09:45:57.832Z,21.71
2024-04-19T09:48:02.411Z,21.70
2024-04-19T09:50:06.113Z,21.69
2024-04-19T09:52:12.124Z,21.70
2024-04-19T09:54:14.327Z,21.68
2024-04-19T09:56:34.635Z,21.67
2024-04-19T09:58:36.511Z,21.67
2024-04-19T10:00:38.607Z,21.67
2024-04-19T10:02:44.359Z,21.68
2024-04-19T10:04:46.073Z,21.70
2024-04-19T10:06:48.677Z,21.70
2024-04-19T10:08:50.416Z,21.72
2024-04-19T10:10:52.942Z,21.70
2024-04-19T10:12:54.896Z,21.70
2024-04-19T10:14:56.516Z,21.70
2024-04-19T10:16:58.330Z,21.70
2024-04-19T10:19:01.204Z,21.70
2024-04-19T10:21:03.550Z,21.69
2024-04-19T10:23:06.313Z,21.69
2024-04-19T10:25:07.940Z,21.69
2024-04-19T10:27:09.528Z,21.69
2024-04-19T10:29:14.171Z,21.69
2024-04-19T10:31:15.842Z,21.70
2024-04-19T10:33:17.677Z,21.70
2024-04-19T10:35:20.661Z,21.70
2024-04-19T10:37:22.692Z,21.70
2024-04-19T10:39:25.794Z,21.72
2024-04-19T10:41:33.264Z,21.74
2024-04-19T10:43:43.919Z,21.73
2024-04-19T10:45:45.591Z,21.74
2024-04-19T10:47:47.367Z,21.75
2024-04-19T10:49:49.270Z,21.73
2024-04-19T10:51:52.243Z,21.69
2024-04-19T10:53:54.046Z,21.70
2024-04-19T10:55:57.862Z,21.70
2024-04-19T10:57:59.454Z,21.73
2024-04-19T11:00:01.960Z,21.78
2024-04-19T11:02:04.452Z,21.74
2024-04-19T11:04:06.375Z,21.75
2024-04-19T11:06:09.852Z,21.76
2024-04-19T11:08:12.869Z,21.75
2024-04-19T11:10:14.614Z,21.75
2024-04-19T11:12:31.549Z,21.75
2024-04-19T11:14:33.225Z,21.78
2024-04-19T11:16:34.862Z,21.78
2024-04-19T11:18:37.608Z,21.80
2024-04-19T11:20:39.444Z,21.76
2024-04-19T11:22:41.532Z,21.76
2024-04-19T11:24:43.352Z,21.78
2024-04-19T11:26:45.279Z,21.86
2024-04-19T11:28:52.177Z,21.87
2024-04-19T11:30:54.229Z,21.91
2024-04-19T11:32:55.936Z,21.97
2024-04-19T11:34:57.571Z,21.98
2024-04-19T11:37:05.855Z,22.09
2024-04-19T11:39:07.535Z,22.04
2024-04-19T11:41:17.061Z,22.05
2024-04-19T11:43:18.830Z,22.11
2024-04-19T11:45:22.011Z,22.16
2024-04-19T11:47:23.765Z,22.22
2024-04-19T11:49:25.454Z,22.25
2024-04-19T11:51:27.696Z,22.26
2024-04-19T11:53:29.486Z,22.38
2024-04-19T11:55:31.190Z,22.40
2024-04-19T11:57:32.888Z,22.42
2024-04-19T11:59:36.122Z,22.31
2024-04-19T12:01:37.886Z,22.29
2024-04-19T12:03:39.955Z,22.33
2024-04-19T12:05:42.309Z,22.36
2024-04-19T12:07:44.171Z,22.34
2024-04-19T12:09:45.874Z,22.34
2024-04-19T12:14:57.175Z,22.38
2024-04-19T12:16:39.762Z,22.32
2024-04-19T12:18:47.411Z,22.33
2024-04-19T12:20:52.057Z,22.33
2024-04-19T12:23:00.764Z,22.32
2024-04-19T12:25:07.238Z,22.21
2024-04-19T12:27:09.193Z,22.15
2024-04-19T12:29:11.855Z,22.18
2024-04-19T12:31:13.595Z,22.03
2024-04-19T12:33:16.949Z,21.94
2024-04-19T12:35:18.669Z,22.02
2024-04-19T12:37:20.518Z,21.97
2024-04-19T12:39:25.123Z,21.95
2024-04-19T12:41:33.034Z,21.89
2024-04-19T12:43:35.256Z,21.86
2024-04-19T12:45:37.212Z,21.76
2024-04-19T12:47:38.883Z,21.75
2024-04-19T12:49:40.606Z,21.70
2024-04-19T12:51:42.366Z,21.74
2024-04-19T12:53:46.851Z,21.75
2024-04-19T12:55:48.476Z,21.86
2024-04-19T12:57:50.159Z,21.81
2024-04-19T12:59:51.822Z,21.82
2024-04-19T13:01:53.560Z,21.85
2024-04-19T13:03:58.446Z,21.76
2024-04-19T13:06:00.257Z,21.76
2024-04-19T13:08:01.981Z,21.83
2024-04-19T13:10:03.777Z,21.81
2024-04-19T13:12:36.195Z,21.84
2024-04-19T13:14:38.471Z,21.78
2024-04-19T13:16:40.204Z,21.63
2024-04-19T13:18:42.002Z,21.69
2024-04-19T13:20:43.779Z,21.63
2024-04-19T13:22:45.622Z,21.48
2024-04-19T13:24:47.487Z,21.57
2024-04-19T13:26:49.187Z,21.57
2024-04-19T13:28:53.480Z,21.55
2024-04-19T13:30:55.195Z,21.57
2024-04-19T13:32:57.568Z,21.53
2024-04-19T13:34:59.500Z,21.45
2024-04-19T13:37:01.408Z,21.48
2024-04-19T13:39:03.580Z,21.47
2024-04-19T13:41:05.925Z,21.50
2024-04-19T13:43:07.745Z,21.52
2024-04-19T13:45:09.527Z,21.51
2024-04-19T13:47:13.376Z,21.46
2024-04-19T13:49:16.729Z,21.54
2024-04-19T13:51:18.515Z,21.42
2024-04-19T13:53:20.149Z,21.56
2024-04-19T13:55:22.171Z,21.50
2024-04-19T13:57:26.571Z,21.49
2024-04-19T13:59:28.457Z,21.49
2024-04-19T14:01:32.329Z,21.49
2024-04-19T14:03:34.187Z,21.53
2024-04-19T14:05:36.149Z,21.54
2024-04-19T14:07:37.855Z,21.58
2024-04-19T14:09:40.693Z,21.66
2024-04-19T14:11:47.572Z,21.63
2024-04-19T14:13:49.700Z,21.58
2024-04-19T14:15:51.469Z,21.64
2024-04-19T14:17:56.246Z,21.73
2024-04-19T14:19:57.905Z,21.61
2024-04-19T14:21:59.938Z,21.65
2024-04-19T14:24:01.671Z,21.64
2024-04-19T14:26:03.820Z,21.59
2024-04-19T14:28:05.912Z,21.58
2024-04-19T14:30:08.114Z,21.67
2024-04-19T14:32:12.572Z,21.67
2024-04-19T14:34:14.481Z,21.73
2024-04-19T14:36:16.270Z,21.71
2024-04-19T14:38:17.855Z,21.73
2024-04-19T14:40:26.481Z,21.53
2024-04-19T14:42:29.613Z,21.62
2024-04-19T14:44:31.294Z,21.54
2024-04-19T14:46:32.979Z,21.59
2024-04-19T14:48:36.280Z,21.51
2024-04-19T14:50:38.169Z,21.62
2024-04-19T14:52:45.004Z,21.73
2024-04-19T14:54:52.262Z,21.63
2024-04-19T14:56:55.699Z,21.68
2024-04-19T14:59:03.641Z,21.68
2024-04-19T15:01:13.299Z,21.56
2024-04-19T15:03:20.902Z,21.60
2024-04-19T15:05:22.600Z,21.47
2024-04-19T15:07:24.478Z,21.34
2024-04-19T15:09:28.046Z,21.26
2024-04-19T15:11:55.445Z,21.27
2024-04-19T15:13:57.665Z,21.22
2024-04-19T15:16:00.344Z,21.27
2024-04-19T15:18:03.910Z,21.25
2024-04-19T15:20:07.020Z,21.14
2024-04-19T15:22:08.986Z,21.14
2024-04-19T15:24:11.920Z,21.04
2024-04-19T15:26:13.799Z,21.12
2024-04-19T15:28:16.167Z,21.13
2024-04-19T15:30:17.799Z,21.05
2024-04-19T15:32:19.449Z,21.06
2024-04-19T15:34:40.833Z,21.09
2024-04-19T15:36:43.232Z,20.99
2024-04-19T15:38:45.175Z,21.01
2024-04-19T15:40:46.922Z,20.97
2024-04-19T15:42:49.428Z,20.92
2024-04-19T15:44:51.261Z,20.95
2024-04-19T15:46:53.509Z,20.99
2024-04-19T15:48:55.893Z,20.98
2024-04-19T15:50:57.552Z,20.96
2024-04-19T15:52:59.161Z,20.94
2024-04-19T15:55:00.808Z,20.94
2024-04-19T15:57:03.188Z,20.94
2024-04-19T15:59:05.167Z,20.97
2024-04-19T16:01:10.284Z,21.00
2024-04-19T16:03:12.038Z,21.09
2024-04-19T16:05:13.987Z,21.13
2024-04-19T16:07:15.684Z,21.09
2024-04-19T16:09:17.513Z,21.11
2024-04-19T16:11:23.628Z,21.13
2024-04-19T16:13:25.480Z,21.25
2024-04-19T16:15:27.120Z,21.17
2024-04-19T16:17:29.141Z,21.16
2024-04-19T16:19:31.313Z,21.17
2024-04-19T16:21:33.152Z,21.15
2024-04-19T16:23:35.059Z,21.20
2024-04-19T16:25:36.685Z,21.21
2024-04-19T16:27:38.910Z,21.22
2024-04-19T16:29:43.524Z,21.26
2024-04-19T16:31:45.149Z,21.19
2024-04-19T16:33:50.007Z,21.21
2024-04-19T16:36:00.587Z,21.16
2024-04-19T16:38:07.747Z,21.27
2024-04-19T16:40:10.045Z,21.32
2024-04-19T16:42:29.265Z,21.17
2024-04-19T16:44:31.100Z,21.22
2024-04-19T16:46:33.242Z,21.20
2024-04-19T16:48:34.905Z,21.13
2024-04-19T16:50:37.192Z,21.07
2024-04-19T16:52:38.889Z,21.14
2024-04-19T16:54:45.079Z,21.06
2024-04-19T16:56:46.804Z,21.05
2024-04-19T16:58:48.666Z,21.01
2024-04-19T17:00:50.574Z,21.08
2024-04-19T17:02:52.353Z,21.08
2024-04-19T17:04:56.106Z,21.04
2024-04-19T17:06:58.758Z,21.05
2024-04-19T17:09:00.462Z,21.00
2024-04-19T17:11:03.512Z,20.98
2024-04-19T17:13:30.672Z,20.94
2024-04-19T17:15:32.534Z,20.93
2024-04-19T17:17:34.402Z,20.90
2024-04-19T17:19:36.229Z,20.89
2024-04-19T17:21:38.737Z,20.89
2024-04-19T17:23:40.399Z,20.89
2024-04-19T17:25:43.673Z,20.84
2024-04-19T17:27:45.371Z,20.80
2024-04-19T17:29:47.575Z,20.81
2024-04-19T17:31:52.175Z,20.78
2024-04-19T17:33:54.140Z,20.79
2024-04-19T17:35:55.803Z,20.73
2024-04-19T17:37:57.941Z,20.69
2024-04-19T17:39:59.780Z,20.69
2024-04-19T17:42:22.337Z,20.65
2024-04-19T17:44:26.189Z,20.65
2024-04-19T17:46:33.186Z,20.63
2024-04-19T17:48:34.892Z,20.62
2024-04-19T17:50:36.561Z,20.60
2024-04-19T17:52:38.281Z,20.55
2024-04-19T17:54:39.955Z,20.53
2024-04-19T17:56:41.554Z,20.51
2024-04-19T17:58:43.283Z,20.50
2024-04-19T18:00:48.397Z,20.52
2024-04-19T18:02:50.187Z,20.53
2024-04-19T18:04:52.270Z,20.52
2024-04-19T18:06:53.994Z,20.51
2024-04-19T18:08:55.878Z,20.49
2024-04-19T18:10:58.696Z,20.49
2024-04-19T18:13:00.758Z,20.48
2024-04-19T18:15:05.494Z,20.50
2024-04-19T18:17:07.548Z,20.47
2024-04-19T18:19:11.631Z,20.47
2024-04-19T18:21:13.416Z,20.45
2024-04-19T18:23:17.000Z,20.46
2024-04-19T18:25:18.791Z,20.46
2024-04-19T18:27:20.407Z,20.47
2024-04-19T18:29:25.403Z,20.48
2024-04-19T18:31:27.710Z,20.47
2024-04-19T18:33:29.411Z,20.46
2024-04-19T18:35:32.333Z,20.44
2024-04-19T18:37:34.227Z,20.43
2024-04-19T18:39:36.363Z,20.43
2024-04-19T18:41:41.781Z,20.44
2024-04-19T18:43:43.441Z,20.39
2024-04-19T18:45:48.166Z,20.39
2024-04-19T18:47:50.849Z,20.39
2024-04-19T18:49:52.536Z,20.38
2024-04-19T18:51:57.535Z,20.39
2024-04-19T18:53:59.257Z,20.38
2024-04-19T18:56:01.417Z,20.38
2024-04-19T18:58:03.113Z,20.38
2024-04-19T19:00:05.346Z,20.38
2024-04-19T19:02:10.656Z,20.38
2024-04-19T19:04:12.832Z,20.35
2024-04-19T19:06:15.489Z,20.36
2024-04-19T19:08:17.171Z,20.35
2024-04-19T19:10:25.113Z,20.35
2024-04-19T19:12:29.163Z,20.34
2024-04-19T19:14:33.323Z,20.41
2024-04-19T19:16:38.117Z,20.37
2024-04-19T19:18:40.390Z,20.29
2024-04-19T19:20:42.112Z,20.28
2024-04-19T19:22:43.789Z,20.31
2024-04-19T19:24:45.733Z,20.32
2024-04-19T19:26:47.395Z,20.31
2024-04-19T19:28:49.529Z,20.35
2024-04-19T19:30:52.032Z,20.33
2024-04-19T19:32:53.744Z,20.34
2024-04-19T19:34:55.508Z,20.35
2024-04-19T19:36:57.221Z,20.37
2024-04-19T19:39:03.594Z,20.37
2024-04-19T19:41:31.032Z,20.38
2024-04-19T19:43:37.646Z,20.39
2024-04-19T19:45:39.567Z,20.38
2024-04-19T19:47:41.481Z,20.36
2024-04-19T19:49:43.154Z,20.38
2024-04-19T19:51:44.987Z,20.38
2024-04-19T19:53:48.274Z,20.39
2024-04-19T19:55:49.967Z,20.39
2024-04-19T19:57:54.964Z,20.41
2024-04-19T20:00:18.562Z,20.42
2024-04-19T20:02:39.026Z,20.44
2024-04-19T20:04:59.613Z,20.41
2024-04-19T20:07:07.931Z,20.42
2024-04-19T20:09:09.690Z,20.40
2024-04-19T20:11:13.235Z,20.42
2024-04-19T20:13:15.049Z,20.40
2024-04-19T20:15:19.154Z,20.37
2024-04-19T20:17:22.607Z,20.39
2024-04-19T20:19:24.529Z,20.36
2024-04-19T20:21:26.200Z,20.37
2024-04-19T20:23:29.410Z,20.35
2024-04-19T20:25:31.022Z,20.32
2024-04-19T20:27:32.833Z,20.32
2024-04-19T20:29:34.458Z,20.33
2024-04-19T20:31:36.057Z,20.32
2024-04-19T20:33:37.785Z,20.32
2024-04-19T20:35:42.602Z,20.30
2024-04-19T20:37:44.270Z,20.31
2024-04-19T20:39:45.889Z,20.30
2024-04-19T20:42:02.714Z,20.28
2024-04-19T20:44:04.638Z,20.27
2024-04-19T20:46:06.277Z,20.27
2024-04-19T20:48:08.262Z,20.29
2024-04-19T20:50:16.483Z,20.30
2024-04-19T20:52:18.281Z,20.29
2024-04-19T20:54:20.015Z,20.27
2024-04-19T20:56:22.450Z,20.25
2024-04-19T20:58:24.052Z,20.27
2024-04-19T21:00:25.644Z,20.26
2024-04-19T21:02:27.260Z,20.26
2024-04-19T21:04:28.917Z,20.24
2024-04-19T21:06:30.764Z,20.23
2024-04-19T21:08:32.596Z,20.23
2024-04-19T21:10:58.783Z,20.23
2024-04-19T21:13:03.225Z,20.23
2024-04-19T21:15:07.273Z,20.21
2024-04-19T21:17:10.161Z,20.23
2024-04-19T21:19:12.389Z,20.25
2024-04-19T21:21:14.808Z,20.23
2024-04-19T21:23:16.923Z,20.22
2024-04-19T21:25:19.022Z,20.20
2024-04-19T21:27:22.243Z,20.19
2024-04-19T21:29:24.861Z,20.18
2024-04-19T21:31:27.139Z,20.19
2024-04-19T21:33:29.370Z,20.17
2024-04-19T21:35:31.518Z,20.17
2024-04-19T21:37:33.665Z,20.20
2024-04-19T21:39:36.496Z,20.21
2024-04-19T21:41:38.594Z,20.20
2024-04-19T21:43:41.063Z,20.19
2024-04-19T21:45:45.936Z,20.16
2024-04-19T21:47:48.286Z,20.15
2024-04-19T21:49:50.436Z,20.14
2024-04-19T21:51:52.522Z,20.03
2024-04-19T21:53:54.584Z,20.08
2024-04-19T21:55:56.729Z,20.08
2024-04-19T21:58:00.593Z,20.10
2024-04-19T22:00:04.997Z,20.10
2024-04-19T22:02:07.095Z,20.13
2024-04-19T22:04:11.502Z,20.18
2024-04-19T22:06:13.694Z,20.20
2024-04-19T22:08:15.870Z,20.21
2024-04-19T22:10:17.999Z,20.22
2024-04-19T22:12:22.903Z,20.22
2024-04-19T22:14:25.160Z,20.23
2024-04-19T22:16:27.411Z,20.24
2024-04-19T22:18:30.901Z,20.24
2024-04-19T22:20:33.426Z,20.29
2024-04-19T22:22:35.873Z,20.20
2024-04-19T22:24:38.019Z,20.31
2024-04-19T22:26:40.186Z,20.29
2024-04-19T22:28:42.308Z,20.31
2024-04-19T22:30:44.969Z,20.35
2024-04-19T22:32:47.284Z,20.37
2024-04-19T22:34:49.662Z,20.37
2024-04-19T22:36:51.850Z,20.38
2024-04-19T22:38:54.437Z,20.37
2024-04-19T22:40:59.487Z,20.36
2024-04-19T22:43:01.635Z,20.38
2024-04-19T22:45:03.940Z,20.38
2024-04-19T22:47:06.149Z,20.39
2024-04-19T22:49:08.393Z,20.38
2024-04-19T22:51:10.739Z,20.40
2024-04-19T22:53:12.881Z,20.40
2024-04-19T22:55:15.029Z,20.40
2024-04-19T22:57:17.171Z,20.42
2024-04-19T22:59:22.614Z,20.33
2024-04-19T23:01:25.803Z,20.40
2024-04-19T23:03:28.030Z,20.40
2024-04-19T23:05:30.611Z,20.40
2024-04-19T23:07:32.687Z,20.39
2024-04-19T23:09:34.822Z,20.41
2024-04-19T23:11:36.887Z,20.41
2024-04-19T23:13:39.374Z,20.40
2024-04-19T23:15:41.860Z,20.42
2024-04-19T23:17:44.149Z,20.43
2024-04-19T23:19:46.420Z,20.42
2024-04-19T23:21:48.760Z,20.42
2024-04-19T23:23:52.056Z,20.41
2024-04-19T23:26:03.931Z,20.40
2024-04-19T23:28:09.076Z,20.37
2024-04-19T23:30:11.451Z,20.34
2024-04-19T23:32:13.612Z,20.33
2024-04-19T23:34:18.725Z,20.31
2024-04-19T23:36:21.085Z,20.34
2024-04-19T23:38:23.638Z,20.33
2024-04-19T23:40:25.727Z,20.35
2024-04-19T23:42:28.053Z,20.36
2024-04-19T23:44:36.430Z,20.36
2024-04-19T23:46:38.525Z,20.34
2024-04-19T23:48:40.802Z,20.33
2024-04-19T23:50:45.477Z,20.34
2024-04-19T23:52:47.864Z,20.32
2024-04-19T23:54:49.937Z,20.32
2024-04-19T23:56:51.996Z,20.31
2024-04-19T23:58:54.058Z,20.31
